Time;durP1;ratioP1;P1;durP2;ratioP2;P2;SDS_P1;SDS_P2;PMS_P1;PMS_P2;Temp;Humidity;BMP_temperature;BMP_pressure;BME280_temperature;BME280_humidity;BME280_pressure;Samples;Min_cycle;Max_cycle;Signal;HPM_P1;HPM_P2
2021/08/16 00:07:51;;;;;;;21.55;13.85;;;17.40;99.90;;;;;;21138932;28;20522;-55
2021/08/16 00:17:53;;;;;;;29.83;15.15;;;17.30;99.90;;;;;;21149005;28;20039;-55
2021/08/16 00:27:56;;;;;;;24.02;14.75;;;17.30;99.90;;;;;;21162871;28;20185;-53
2021/08/16 00:37:58;;;;;;;22.08;13.88;;;17.20;99.90;;;;;;21137103;28;20056;-54
2021/08/16 00:48:00;;;;;;;26.02;15.23;;;17.20;99.90;;;;;;21133636;28;20036;-56
2021/08/16 00:58:02;;;;;;;22.77;13.98;;;17.30;99.90;;;;;;21104130;28;20024;-50
2021/08/16 01:08:04;;;;;;;24.70;18.33;;;17.50;99.90;;;;;;21111592;28;20063;-55
2021/08/16 01:18:09;;;;;;;19.35;13.52;;;17.60;99.90;;;;;;21097392;28;20043;-52
2021/08/16 01:28:10;;;;;;;23.98;14.02;;;17.70;99.90;;;;;;21103046;28;20428;-55
2021/08/16 01:38:12;;;;;;;19.98;12.55;;;17.90;99.90;;;;;;21120116;28;20112;-51
2021/08/16 01:48:15;;;;;;;20.23;13.30;;;18.10;99.90;;;;;;21100946;28;20117;-54
2021/08/16 01:58:16;;;;;;;23.92;16.02;;;18.00;99.90;;;;;;21115362;28;20119;-57
2021/08/16 02:08:18;;;;;;;22.23;14.80;;;17.80;99.90;;;;;;21115749;28;20040;-56
2021/08/16 02:18:20;;;;;;;23.05;14.63;;;17.60;99.90;;;;;;21120774;28;20032;-56
2021/08/16 02:28:22;;;;;;;22.83;15.32;;;17.60;99.90;;;;;;21110851;28;20389;-53
2021/08/16 02:38:23;;;;;;;23.02;16.63;;;17.70;99.90;;;;;;21125681;28;20097;-53
2021/08/16 02:48:25;;;;;;;18.80;14.20;;;17.80;99.90;;;;;;21133299;28;20476;-57
2021/08/16 02:58:27;;;;;;;22.55;15.07;;;17.90;99.90;;;;;;21111153;28;20053;-54
2021/08/16 03:08:29;;;;;;;24.63;14.30;;;17.80;99.90;;;;;;21142330;28;20092;-54
2021/08/16 03:18:33;;;;;;;23.35;13.90;;;17.80;99.90;;;;;;21116234;28;20057;-54
2021/08/16 03:28:38;;;;;;;19.40;13.80;;;17.80;99.90;;;;;;21090775;28;20074;-52
2021/08/16 03:38:40;;;;;;;22.75;11.80;;;17.90;99.90;;;;;;21055476;28;20115;-55
2021/08/16 03:48:42;;;;;;;23.15;13.73;;;18.00;99.90;;;;;;21041430;28;20032;-53
2021/08/16 03:58:44;;;;;;;15.38;11.00;;;18.10;99.90;;;;;;21027382;28;20386;-56
2021/08/16 04:08:46;;;;;;;16.08;11.23;;;18.10;99.90;;;;;;21043195;28;20036;-53
2021/08/16 04:18:48;;;;;;;16.75;10.32;;;17.90;99.90;;;;;;21034835;28;20032;-54
2021/08/16 04:28:49;;;;;;;16.27;12.07;;;17.90;99.90;;;;;;21043506;28;20428;-55
2021/08/16 04:38:51;;;;;;;15.70;10.07;;;17.80;99.90;;;;;;21100116;28;20043;-52
2021/08/16 04:48:53;;;;;;;17.38;10.30;;;17.80;99.90;;;;;;21102673;28;20063;-53
2021/08/16 04:58:57;;;;;;;15.13;9.25;;;17.90;99.90;;;;;;21118529;28;20409;-54
2021/08/16 05:09:00;;;;;;;18.63;10.52;;;18.00;99.90;;;;;;21118235;28;20308;-53
2021/08/16 05:19:02;;;;;;;13.07;9.60;;;18.00;99.90;;;;;;21116243;28;20032;-55
2021/08/16 05:29:04;;;;;;;14.65;9.32;;;18.40;99.90;;;;;;21119833;28;20393;-56
2021/08/16 05:39:06;;;;;;;13.00;9.82;;;18.40;99.90;;;;;;21117049;28;20052;-54
2021/08/16 05:49:07;;;;;;;12.57;8.82;;;18.60;99.90;;;;;;21126780;28;20085;-52
2021/08/16 05:59:09;;;;;;;10.55;8.90;;;18.70;99.90;;;;;;21134112;28;20387;-55
2021/08/16 06:09:11;;;;;;;12.88;9.38;;;18.60;99.90;;;;;;21129562;28;20028;-54
2021/08/16 06:19:14;;;;;;;15.30;10.45;;;18.40;99.90;;;;;;21113944;28;20031;-54
2021/08/16 06:29:15;;;;;;;13.50;9.32;;;18.30;99.90;;;;;;21117762;28;20032;-53
2021/08/16 06:39:21;;;;;;;17.52;9.88;;;18.60;99.90;;;;;;21122667;28;20101;-51
2021/08/16 06:49:24;;;;;;;16.00;9.95;;;21.60;99.90;;;;;;21121502;28;20085;-57
2021/08/16 06:59:26;;;;;;;13.15;9.25;;;22.10;99.90;;;;;;21125211;28;20032;-57
2021/08/16 07:09:28;;;;;;;16.13;9.73;;;25.00;99.90;;;;;;21127087;28;20036;-58
2021/08/16 07:19:30;;;;;;;11.27;7.88;;;25.60;99.90;;;;;;21112496;28;20027;-56
2021/08/16 07:29:31;;;;;;;11.95;9.23;;;26.40;99.90;;;;;;21111282;28;20028;-54
2021/08/16 07:39:33;;;;;;;11.35;8.40;;;26.90;99.90;;;;;;21117947;28;20055;-57
2021/08/16 07:49:37;;;;;;;13.57;9.18;;;27.60;99.90;;;;;;21125873;28;20040;-54
2021/08/16 07:59:39;;;;;;;12.00;8.93;;;27.50;99.90;;;;;;21116784;28;20104;-57
2021/08/16 08:09:41;;;;;;;13.10;8.63;;;27.80;99.40;;;;;;21115427;28;20109;-57
2021/08/16 08:19:42;;;;;;;10.93;7.40;;;28.00;99.30;;;;;;21116615;28;20045;-58
2021/08/16 08:29:45;;;;;;;11.38;8.25;;;26.50;98.50;;;;;;21111160;28;20036;-55
2021/08/16 08:39:47;;;;;;;9.60;7.13;;;26.30;99.00;;;;;;21117364;28;20076;-57
2021/08/16 08:49:49;;;;;;;9.57;7.07;;;27.30;98.70;;;;;;21120078;28;20397;-58
2021/08/16 08:59:50;;;;;;;9.55;6.50;;;27.60;96.40;;;;;;21103702;28;20438;-55
2021/08/16 09:09:55;;;;;;;12.43;6.50;;;27.90;93.80;;;;;;21110030;28;20028;-54
2021/08/16 09:19:59;;;;;;;9.68;5.85;;;28.40;95.20;;;;;;21125788;28;20039;-58
2021/08/16 09:30:01;;;;;;;11.10;6.53;;;28.80;94.00;;;;;;21132125;28;20438;-55
2021/08/16 09:40:20;;;;;;;10.65;6.18;;;29.20;94.20;;;;;;21127984;28;20043;-57
2021/08/16 09:50:23;;;;;;;11.93;8.55;;;29.10;92.10;;;;;;21120377;28;20413;-56
2021/08/16 10:00:24;;;;;;;10.50;8.15;;;29.20;93.60;;;;;;21124648;28;20031;-58
2021/08/16 10:10:27;;;;;;;15.70;8.73;;;28.40;94.60;;;;;;21125717;28;20048;-58
2021/08/16 10:20:31;;;;;;;21.70;9.40;;;28.60;92.50;;;;;;21132138;28;20028;-56
2021/08/16 10:30:44;;;;;;;12.27;8.82;;;29.10;94.60;;;;;;21124184;28;20353;-55
2021/08/16 10:40:53;;;;;;;11.63;9.85;;;29.40;93.50;;;;;;21107571;28;20132;-57
2021/08/16 10:51:14;;;;;;;10.23;8.40;;;27.30;94.70;;;;;;21124702;28;20126;-55
2021/08/16 11:01:29;;;;;;;13.77;9.27;;;27.00;95.90;;;;;;21128865;28;20101;-56
2021/08/16 11:11:35;;;;;;;19.13;8.07;;;27.10;98.30;;;;;;21111390;28;20121;-56
2021/08/16 11:21:37;;;;;;;16.83;8.70;;;28.30;93.90;;;;;;21120293;28;20027;-57
2021/08/16 11:31:42;;;;;;;13.10;8.70;;;27.50;95.60;;;;;;21118936;28;20476;-57
2021/08/16 11:41:44;;;;;;;9.52;7.05;;;27.70;95.20;;;;;;21117887;28;20545;-56
2021/08/16 11:51:47;;;;;;;14.93;7.93;;;28.60;95.10;;;;;;21105263;28;20546;-58
2021/08/16 12:01:54;;;;;;;12.48;8.07;;;28.20;94.30;;;;;;21100620;28;20381;-57
2021/08/16 12:12:00;;;;;;;15.07;7.72;;;27.50;95.20;;;;;;21097002;28;20040;-56
2021/08/16 12:22:11;;;;;;;12.40;7.78;;;28.50;95.80;;;;;;21128872;28;20088;-55
2021/08/16 12:32:43;;;;;;;11.05;7.18;;;29.40;92.90;;;;;;21341141;27;20381;-56
2021/08/16 12:43:04;;;;;;;9.57;7.85;;;28.60;92.20;;;;;;21371410;27;20111;-57
2021/08/16 12:53:25;;;;;;;14.25;8.75;;;27.70;93.90;;;;;;21143670;27;20896;-52
2021/08/16 13:03:44;;;;;;;11.48;9.15;;;27.30;95.70;;;;;;21188429;27;20389;-58
2021/08/16 13:14:06;;;;;;;10.45;7.95;;;27.00;94.30;;;;;;21059602;27;20381;-57
2021/08/16 13:24:26;;;;;;;28.00;10.43;;;26.10;95.00;;;;;;21366150;27;20299;-56
2021/08/16 13:34:46;;;;;;;16.42;7.68;;;25.80;96.00;;;;;;20976196;28;20745;-53
2021/08/16 13:45:08;;;;;;;14.93;7.45;;;25.30;96.00;;;;;;21143941;27;20921;-56
2021/08/16 13:55:30;;;;;;;22.90;8.20;;;25.30;94.80;;;;;;21210073;27;2056689;-58
2021/08/16 14:05:50;;;;;;;20.73;8.82;;;25.20;96.70;;;;;;21366931;27;20293;-56
2021/08/16 14:16:13;;;;;;;20.00;7.40;;;25.50;95.70;;;;;;21059757;28;20106;-56
2021/08/16 14:26:38;;;;;;;29.10;9.20;;;25.50;94.70;;;;;;21186380;27;20129;-58
2021/08/16 14:36:58;;;;;;;20.23;7.65;;;25.30;94.20;;;;;;21186516;27;21002;-54
2021/08/16 14:47:19;;;;;;;26.17;9.05;;;24.90;94.90;;;;;;21169230;27;20382;-56
2021/08/16 14:57:34;;;;;;;20.80;9.02;;;24.30;96.20;;;;;;21203494;27;20347;-56
2021/08/16 15:07:53;;;;;;;22.80;9.15;;;23.90;96.90;;;;;;21186369;27;20418;-55
2021/08/16 15:18:14;;;;;;;20.73;8.80;;;24.00;97.80;;;;;;20976185;28;20390;-56
2021/08/16 15:28:34;;;;;;;20.35;9.88;;;23.50;97.90;;;;;;21059860;28;20396;-55
2021/08/16 15:38:57;;;;;;;28.10;10.50;;;23.20;99.10;;;;;;21371735;27;20308;-52
2021/08/16 15:49:19;;;;;;;28.88;11.77;;;23.60;98.90;;;;;;21059387;28;20381;-57
2021/08/16 15:59:40;;;;;;;31.10;10.40;;;23.20;99.70;;;;;;20975162;28;20387;-56
2021/08/16 16:10:03;;;;;;;33.08;10.00;;;22.90;99.90;;;;;;21189848;27;20372;-58
2021/08/16 16:20:22;;;;;;;25.45;10.30;;;22.50;99.90;;;;;;21059570;28;20609;-55
2021/08/16 16:30:41;;;;;;;26.20;10.93;;;22.30;99.90;;;;;;21187088;27;20386;-55
2021/08/16 16:41:03;;;;;;;27.27;10.55;;;22.40;99.90;;;;;;21207788;27;20368;-56
2021/08/16 16:51:27;;;;;;;25.00;10.15;;;22.10;99.90;;;;;;21146069;27;20147;-57
2021/08/16 17:01:49;;;;;;;30.35;10.40;;;21.50;99.90;;;;;;20976253;28;20391;-56
2021/08/16 17:12:10;;;;;;;28.27;9.85;;;21.10;99.90;;;;;;20976187;28;20379;-57
2021/08/16 17:22:31;;;;;;;23.58;9.25;;;20.80;99.90;;;;;;20975735;28;20899;-53
2021/08/16 17:32:51;;;;;;;20.30;8.70;;;20.70;99.90;;;;;;21169818;27;20406;-57
2021/08/16 17:43:12;;;;;;;27.70;9.18;;;20.50;99.90;;;;;;20976320;28;20732;-55
2021/08/16 17:53:32;;;;;;;19.80;7.53;;;20.30;99.90;;;;;;21187262;27;20107;-55
2021/08/16 18:03:52;;;;;;;7.55;1.50;;;17.30;99.90;;;;;;21391582;27;20098;-57
2021/08/16 18:14:15;;;;;;;10.82;2.70;;;15.60;99.90;;;;;;21001496;28;20158;-51
2021/08/16 18:24:42;;;;;;;1.63;1.02;;;13.80;99.90;;;;;;21214360;27;20103;-53
2021/08/16 18:35:35;;;;;;;5.22;1.70;;;14.90;99.90;;;;;;21125278;28;20435;-52
2021/08/16 18:46:11;;;;;;;5.93;2.45;;;14.80;99.90;;;;;;21202452;27;20671;-52
2021/08/16 18:57:16;;;;;;;4.43;2.10;;;14.20;99.90;;;;;;21139068;27;20305;-56
2021/08/16 19:07:55;;;;;;;5.25;0.82;;;14.20;99.90;;;;;;21220420;27;20637;-51
2021/08/16 19:18:21;;;;;;;0.85;0.55;;;13.70;99.90;;;;;;20835735;27;10407311;-57
2021/08/16 19:29:30;;;;;;;;;;;13.20;99.90;;;;;;18993252;27;63633729;-52
2021/08/16 19:40:23;;;;;;;0.93;0.67;;;12.70;99.90;;;;;;21186560;27;20538;-54
2021/08/16 19:50:53;;;;;;;1.13;0.80;;;12.50;99.90;;;;;;20930914;27;20457;-57
2021/08/16 20:01:23;;;;;;;0.63;0.43;;;12.30;99.90;;;;;;21172161;27;20448;-53
2021/08/16 20:11:53;;;;;;;0.70;0.30;;;12.00;99.90;;;;;;21208508;27;20949;-57
2021/08/16 20:22:15;;;;;;;0.43;0.20;;;11.90;99.90;;;;;;21178856;27;20383;-54
2021/08/16 20:32:17;;;;;;;0.63;0.20;;;11.70;99.90;;;;;;21179895;28;20036;-55
2021/08/16 20:42:19;;;;;;;1.25;0.00;;;11.70;99.90;;;;;;21142625;28;20035;-52
2021/08/16 20:52:21;;;;;;;0.20;0.00;;;11.90;99.90;;;;;;21114370;28;20037;-54
2021/08/16 21:02:23;;;;;;;2.08;0.10;;;11.80;99.90;;;;;;21140418;28;20028;-55
2021/08/16 21:12:25;;;;;;;0.17;0.00;;;11.50;99.90;;;;;;21128432;28;20054;-52
2021/08/16 21:22:27;;;;;;;2.28;0.10;;;11.50;99.90;;;;;;21105938;28;20166;-56
2021/08/16 21:32:29;;;;;;;0.10;0.00;;;11.40;99.90;;;;;;21061888;28;20035;-52
2021/08/16 21:42:33;;;;;;;0.70;0.05;;;11.40;99.90;;;;;;21055015;28;20356;-54
2021/08/16 21:52:40;;;;;;;0.45;0.10;;;11.30;99.90;;;;;;21043146;28;20024;-53
2021/08/16 22:02:43;;;;;;;1.30;0.10;;;11.50;99.90;;;;;;21055990;28;20040;-56
2021/08/16 22:12:45;;;;;;;0.22;0.08;;;11.60;99.90;;;;;;21045741;28;20048;-53
2021/08/16 22:22:46;;;;;;;0.10;0.10;;;11.80;99.90;;;;;;21043039;28;20032;-55
2021/08/16 22:32:51;;;;;;;2.88;0.10;;;11.70;99.90;;;;;;21047493;28;20028;-53
2021/08/16 22:42:53;;;;;;;1.02;0.30;;;11.60;99.90;;;;;;21028945;28;20043;-55
2021/08/16 22:52:54;;;;;;;4.13;0.40;;;11.60;99.90;;;;;;21036486;28;20028;-52
2021/08/16 23:02:56;;;;;;;2.50;0.30;;;11.60;99.90;;;;;;21029279;28;20069;-53
2021/08/16 23:12:57;;;;;;;0.82;0.35;;;12.00;99.90;;;;;;21032818;28;20047;-55
2021/08/16 23:22:59;;;;;;;0.55;0.30;;;12.10;99.90;;;;;;21037825;28;20432;-55
2021/08/16 23:33:01;;;;;;;6.32;0.30;;;12.00;99.90;;;;;;21027461;28;20028;-53
2021/08/16 23:43:04;;;;;;;3.47;0.47;;;12.00;99.90;;;;;;21030762;28;20043;-55
2021/08/16 23:53:09;;;;;;;0.65;0.20;;;12.00;99.90;;;;;;21042711;28;20470;-55
